createdAt,value
2023-12-13T00:01:46.000Z,98189.84
2023-12-13T00:05:47.804Z,98185.41
2023-12-13T00:09:49.670Z,98181.53
2023-12-13T00:13:55.740Z,98182.34
2023-12-13T00:17:58.665Z,98169.94
2023-12-13T00:22:00.707Z,98172.13
2023-12-13T00:26:03.969Z,98173.50
2023-12-13T00:30:06.476Z,98168.25
2023-12-13T00:34:08.376Z,98168.00
2023-12-13T00:38:10.561Z,98163.88
2023-12-13T00:42:13.846Z,98171.00
2023-12-13T00:46:21.430Z,98167.69
2023-12-13T00:50:23.443Z,98180.94
2023-12-13T00:54:26.234Z,98171.59
2023-12-13T00:58:27.923Z,98169.94
2023-12-13T01:02:29.904Z,98169.09
2023-12-13T01:06:31.630Z,98165.25
2023-12-13T01:10:33.480Z,98162.75
2023-12-13T01:14:35.197Z,98176.25
2023-12-13T01:18:37.674Z,98164.78
2023-12-13T01:22:39.550Z,98175.59
2023-12-13T01:26:41.496Z,98172.91
2023-12-13T01:30:43.236Z,98175.72
2023-12-13T01:34:45.000Z,98179.34
2023-12-13T01:38:46.753Z,98180.19
2023-12-13T01:42:48.442Z,98179.38
2023-12-13T01:46:51.034Z,98176.63
2023-12-13T01:50:55.294Z,98187.09
2023-12-13T01:54:57.646Z,98185.16
2023-12-13T01:58:59.967Z,98190.97
2023-12-13T02:03:01.896Z,98189.84
2023-12-13T02:07:03.698Z,98185.72
2023-12-13T02:11:05.886Z,98188.47
2023-12-13T02:15:08.661Z,98181.59
2023-12-13T02:19:12.127Z,98174.13
2023-12-13T02:23:13.930Z,98181.78
2023-12-13T02:27:16.073Z,98179.56
2023-12-13T02:31:18.392Z,98170.00
2023-12-13T02:35:20.142Z,98169.19
2023-12-13T02:39:21.906Z,98177.72
2023-12-13T02:43:23.752Z,98171.13
2023-12-13T02:47:26.739Z,98175.25
2023-12-13T02:51:28.476Z,98162.06
2023-12-13T02:55:30.228Z,98164.56
2023-12-13T02:59:32.748Z,98152.50
2023-12-13T03:03:34.570Z,98153.63
2023-12-13T03:07:36.602Z,98142.38
2023-12-13T03:11:40.811Z,98147.34
2023-12-13T03:15:42.560Z,98133.06
2023-12-13T03:19:44.496Z,98129.81
2023-12-13T03:23:46.311Z,98139.94
2023-12-13T03:27:48.008Z,98135.25
2023-12-13T03:31:49.830Z,98124.22
2023-12-13T03:35:51.657Z,98125.84
2023-12-13T03:39:53.394Z,98123.59
2023-12-13T03:43:55.181Z,98108.47
2023-12-13T03:47:57.028Z,98114.78
2023-12-13T03:51:58.828Z,98111.50
2023-12-13T03:56:01.272Z,98101.63
2023-12-13T04:00:03.235Z,98109.53
2023-12-13T04:04:14.519Z,98104.03
2023-12-13T04:08:16.421Z,98103.22
2023-12-13T04:12:18.432Z,98101.88
2023-12-13T04:16:20.148Z,98091.50
2023-12-13T04:20:21.965Z,98088.81
2023-12-13T04:24:23.677Z,98090.75
2023-12-13T04:28:25.358Z,98096.50
2023-12-13T04:32:27.526Z,98091.84
2023-12-13T04:36:29.448Z,98099.81
2023-12-13T04:40:31.233Z,98106.69
2023-12-13T04:44:33.076Z,98096.56
2023-12-13T04:48:34.844Z,98094.09
2023-12-13T04:52:37.179Z,98094.63
2023-12-13T04:56:38.889Z,98099.03
2023-12-13T05:00:40.646Z,98094.94
2023-12-13T05:04:42.467Z,98090.00
2023-12-13T05:08:44.410Z,98084.81
2023-12-13T05:12:46.167Z,98085.88
2023-12-13T05:16:47.917Z,98083.16
2023-12-13T05:20:50.602Z,98077.41
2023-12-13T05:24:52.403Z,98069.41
2023-12-13T05:28:54.212Z,98074.59
2023-12-13T05:32:56.065Z,98072.91
2023-12-13T05:36:57.790Z,98076.97
2023-12-13T05:41:01.034Z,98070.59
2023-12-13T05:45:02.861Z,98071.97
2023-12-13T05:49:09.805Z,98076.97
2023-12-13T05:53:13.322Z,98071.50
2023-12-13T05:57:15.244Z,98066.84
2023-12-13T06:01:17.028Z,98059.44
2023-12-13T06:05:19.353Z,98061.59
2023-12-13T06:09:22.022Z,98068.72
2023-12-13T06:13:23.816Z,98072.34
2023-12-13T06:17:25.937Z,98072.09
2023-12-13T06:21:28.025Z,98062.81
2023-12-13T06:25:29.766Z,98059.81
2023-12-13T06:29:31.463Z,98066.13
2023-12-13T06:33:33.370Z,98065.03
2023-12-13T06:37:35.393Z,98054.06
2023-12-13T06:41:38.057Z,98046.91
2023-12-13T06:45:39.946Z,98040.06
2023-12-13T06:49:41.714Z,98054.59
2023-12-13T06:53:43.420Z,98039.78
2023-12-13T06:57:45.184Z,98049.09
2023-12-13T07:01:47.016Z,98045.47
2023-12-13T07:05:49.044Z,98051.75
2023-12-13T07:09:50.870Z,98048.38
2023-12-13T07:13:52.889Z,98044.22
2023-12-13T07:17:55.281Z,98039.81
2023-12-13T07:21:57.037Z,98035.34
2023-12-13T07:25:58.997Z,98031.72
2023-12-13T07:30:00.995Z,98031.41
2023-12-13T07:34:03.988Z,98028.34
2023-12-13T07:38:05.877Z,98032.38
2023-12-13T07:42:07.651Z,98032.09
2023-12-13T07:46:10.505Z,98035.91
2023-12-13T07:50:12.614Z,98039.69
2023-12-13T07:54:17.465Z,98040.53
2023-12-13T07:58:20.578Z,98033.72
2023-12-13T08:02:24.322Z,98035.66
2023-12-13T08:06:26.148Z,98038.88
2023-12-13T08:10:27.952Z,98030.59
2023-12-13T08:14:32.314Z,98039.13
2023-12-13T08:18:34.182Z,98041.69
2023-12-13T08:22:35.978Z,98039.22
2023-12-13T08:26:37.895Z,98046.03
2023-12-13T08:30:39.867Z,98038.81
2023-12-13T08:34:41.665Z,98043.50
2023-12-13T08:38:43.648Z,98044.25
2023-12-13T08:42:46.081Z,98032.59
2023-12-13T08:46:48.674Z,98034.75
2023-12-13T08:50:50.646Z,98038.59
2023-12-13T08:54:52.616Z,98038.28
2023-12-13T08:58:54.527Z,98037.44
2023-12-13T09:02:56.289Z,98044.00
2023-12-13T09:06:58.379Z,98043.63
2023-12-13T09:11:00.435Z,98064.53
2023-12-13T09:15:02.217Z,98064.63
2023-12-13T09:19:04.167Z,98068.88
2023-12-13T09:23:06.248Z,98065.94
2023-12-13T09:27:08.105Z,98063.53
2023-12-13T09:31:09.855Z,98061.31
2023-12-13T09:35:11.668Z,98056.84
2023-12-13T09:39:17.369Z,98056.19
2023-12-13T09:43:19.513Z,98058.94
2023-12-13T09:47:22.734Z,98063.78
2023-12-13T09:51:25.341Z,98061.69
2023-12-13T09:55:27.678Z,98057.56
2023-12-13T09:59:29.493Z,98063.06
2023-12-13T10:03:32.777Z,98069.88
2023-12-13T10:07:34.579Z,98062.34
2023-12-13T10:11:36.553Z,98071.94
2023-12-13T10:15:38.415Z,98065.56
2023-12-13T10:19:41.014Z,98063.94
2023-12-13T10:23:42.841Z,98057.84
2023-12-13T10:27:44.647Z,98053.69
2023-12-13T10:31:46.970Z,98048.59
2023-12-13T10:35:52.420Z,98065.31
2023-12-13T10:39:57.674Z,98061.56
2023-12-13T10:44:00.341Z,98059.13
2023-12-13T10:48:09.512Z,98059.09
2023-12-13T10:52:13.300Z,98058.97
2023-12-13T10:56:16.274Z,98054.16
2023-12-13T11:00:18.620Z,98063.22
2023-12-13T11:04:21.556Z,98063.19
2023-12-13T11:08:23.254Z,98067.06
2023-12-13T11:12:25.568Z,98062.41
2023-12-13T11:16:27.450Z,98065.94
2023-12-13T11:20:29.839Z,98072.34
2023-12-13T11:24:37.893Z,98064.00
2023-12-13T11:28:39.704Z,98062.59
2023-12-13T11:32:47.016Z,98057.88
2023-12-13T11:36:48.849Z,98056.84
2023-12-13T11:40:50.755Z,98059.44
2023-12-13T11:44:52.721Z,98057.69
2023-12-13T11:48:54.444Z,98062.84
2023-12-13T11:52:56.344Z,98056.81
2023-12-13T11:56:58.087Z,98053.47
2023-12-13T12:01:00.429Z,98049.28
2023-12-13T12:05:07.771Z,98049.16
2023-12-13T12:09:09.863Z,98068.84
2023-12-13T12:13:14.745Z,98058.78
2023-12-13T12:17:21.945Z,98055.09
2023-12-13T12:21:24.402Z,98051.72
2023-12-13T12:25:29.459Z,98067.06
2023-12-13T12:29:31.888Z,98056.91
2023-12-13T12:33:33.776Z,98065.81
2023-12-13T12:37:35.809Z,98059.25
2023-12-13T12:41:37.814Z,98050.94
2023-12-13T12:45:39.643Z,98045.44
2023-12-13T12:49:42.127Z,98045.50
2023-12-13T12:53:44.082Z,98047.03
2023-12-13T12:57:46.430Z,98043.25
2023-12-13T13:01:48.670Z,98044.72
2023-12-13T13:05:50.462Z,98038.28
2023-12-13T13:09:53.261Z,98040.81
2023-12-13T13:13:55.160Z,98045.81
2023-12-13T13:17:56.890Z,98049.47
2023-12-13T13:22:03.253Z,98052.47
2023-12-13T13:26:11.449Z,98044.00
2023-12-13T13:30:15.172Z,98045.38
2023-12-13T13:34:18.098Z,98047.31
2023-12-13T13:38:23.438Z,98045.69
2023-12-13T13:42:25.569Z,98044.53
2023-12-13T13:46:27.321Z,98035.06
2023-12-13T13:50:29.304Z,98031.69
2023-12-13T13:54:31.208Z,98035.44
2023-12-13T13:58:33.008Z,98032.06
2023-12-13T14:02:35.085Z,98028.47
2023-12-13T14:06:36.843Z,98032.84
2023-12-13T14:10:38.695Z,98034.47
2023-12-13T14:14:40.506Z,98037.59
2023-12-13T14:18:42.272Z,98039.59
2023-12-13T14:22:44.208Z,98047.16
2023-12-13T14:26:46.108Z,98047.53
2023-12-13T14:30:47.857Z,98046.78
2023-12-13T14:34:49.800Z,98047.66
2023-12-13T14:38:51.497Z,98053.66
2023-12-13T14:42:54.000Z,98067.13
2023-12-13T14:46:56.383Z,98069.81
2023-12-13T14:50:58.273Z,98077.19
2023-12-13T14:55:00.264Z,98079.94
2023-12-13T14:59:01.994Z,98077.44
2023-12-13T15:03:06.080Z,98074.16
2023-12-13T15:07:08.716Z,98084.69
2023-12-13T15:11:10.579Z,98085.59
2023-12-13T15:15:12.650Z,98085.97
2023-12-13T15:19:15.332Z,98088.81
2023-12-13T15:23:19.579Z,98096.00
2023-12-13T15:27:21.529Z,98108.66
2023-12-13T15:31:25.188Z,98104.78
2023-12-13T15:35:26.942Z,98116.06
2023-12-13T15:39:28.693Z,98105.88
2023-12-13T15:43:30.927Z,98112.50
2023-12-13T15:47:33.897Z,98114.72
2023-12-13T15:51:35.901Z,98120.78
2023-12-13T15:55:37.706Z,98123.59
2023-12-13T15:59:39.530Z,98128.91
2023-12-13T16:03:41.351Z,98136.09
2023-12-13T16:07:45.128Z,98128.44
2023-12-13T16:11:46.935Z,98135.84
2023-12-13T16:15:48.839Z,98137.25
2023-12-13T16:19:50.553Z,98145.47
2023-12-13T16:23:52.426Z,98145.72
2023-12-13T16:27:54.165Z,98150.94
2023-12-13T16:31:55.911Z,98151.50
2023-12-13T16:35:57.781Z,98161.38
2023-12-13T16:39:59.535Z,98162.19
2023-12-13T16:44:04.357Z,98164.09
2023-12-13T16:48:06.490Z,98172.91
2023-12-13T16:52:08.235Z,98165.19
2023-12-13T16:56:10.079Z,98178.66
2023-12-13T17:00:12.646Z,98184.19
2023-12-13T17:04:14.453Z,98188.00
2023-12-13T17:08:16.278Z,98194.59
2023-12-13T17:12:21.213Z,98198.44
2023-12-13T17:16:23.033Z,98212.44
2023-12-13T17:20:24.812Z,98215.72
2023-12-13T17:24:32.720Z,98221.50
2023-12-13T17:28:34.727Z,98230.28
2023-12-13T17:32:37.078Z,98237.41
2023-12-13T17:36:39.014Z,98238.81
2023-12-13T17:40:40.704Z,98244.00
2023-12-13T17:44:42.544Z,98249.78
2023-12-13T17:48:44.393Z,98245.63
2023-12-13T17:52:46.112Z,98257.75
2023-12-13T17:56:47.913Z,98257.72
2023-12-13T18:00:51.788Z,98264.31
2023-12-13T18:04:54.028Z,98267.91
2023-12-13T18:08:56.254Z,98281.34
2023-12-13T18:12:58.025Z,98288.22
2023-12-13T18:16:59.776Z,98289.31
2023-12-13T18:21:03.899Z,98289.06
2023-12-13T18:25:06.200Z,98294.53
2023-12-13T18:29:07.943Z,98300.00
2023-12-13T18:33:09.649Z,98301.94
2023-12-13T18:37:11.886Z,98298.09
2023-12-13T18:41:13.625Z,98310.47
2023-12-13T18:45:17.164Z,98308.25
2023-12-13T18:49:18.968Z,98317.56
2023-12-13T18:53:21.081Z,98323.59
2023-12-13T18:57:23.865Z,98321.97
2023-12-13T19:01:25.664Z,98333.47
2023-12-13T19:05:28.838Z,98332.91
2023-12-13T19:09:33.360Z,98339.47
2023-12-13T19:13:36.616Z,98340.03
2023-12-13T19:17:40.337Z,98345.81
2023-12-13T19:21:42.183Z,98355.72
2023-12-13T19:25:43.996Z,98363.16
2023-12-13T19:29:45.753Z,98368.09
2023-12-13T19:33:47.687Z,98378.28
2023-12-13T19:37:49.649Z,98380.19
2023-12-13T19:41:51.379Z,98387.34
2023-12-13T19:45:53.164Z,98393.41
2023-12-13T19:49:55.955Z,98402.19
2023-12-13T19:53:57.604Z,98401.09
2023-12-13T19:57:59.306Z,98402.44
2023-12-13T20:02:02.431Z,98416.19
2023-12-13T20:06:04.602Z,98419.22
2023-12-13T20:10:07.176Z,98422.78
2023-12-13T20:14:09.090Z,98426.66
2023-12-13T20:18:10.978Z,98435.69
2023-12-13T20:22:12.714Z,98429.38
2023-12-13T20:26:15.045Z,98432.13
2023-12-13T20:30:16.970Z,98432.94
2023-12-13T20:34:18.821Z,98441.75
2023-12-13T20:38:23.101Z,98452.75
2023-12-13T20:42:25.103Z,98463.72
2023-12-13T20:46:26.927Z,98465.38
2023-12-13T20:50:28.685Z,98469.50
2023-12-13T20:54:30.896Z,98473.63
2023-12-13T20:58:32.643Z,98477.75
2023-12-13T21:02:34.466Z,98487.59
2023-12-13T21:06:36.290Z,98494.50
2023-12-13T21:10:39.013Z,98493.91
2023-12-13T21:14:40.791Z,98501.59
2023-12-13T21:18:42.615Z,98510.66
2023-12-13T21:22:44.975Z,98512.03
2023-12-13T21:26:46.834Z,98524.34
2023-12-13T21:30:48.666Z,98530.34
2023-12-13T21:34:50.499Z,98526.38
2023-12-13T21:38:52.197Z,98535.41
2023-12-13T21:42:53.920Z,98549.13
2023-12-13T21:46:55.973Z,98555.94
2023-12-13T21:50:57.709Z,98549.06
2023-12-13T21:54:59.490Z,98557.00
2023-12-13T21:59:04.569Z,98565.50
2023-12-13T22:03:06.317Z,98568.50
2023-12-13T22:07:08.256Z,98573.19
2023-12-13T22:11:11.006Z,98574.53
2023-12-13T22:15:13.098Z,98580.84
2023-12-13T22:19:33.292Z,98589.38
2023-12-13T22:23:47.193Z,98605.81
2023-12-13T22:27:52.718Z,98601.97
2023-12-13T22:31:54.540Z,98606.94
2023-12-13T22:35:58.160Z,98611.59
2023-12-13T22:40:00.209Z,98615.94
2023-12-13T22:44:02.256Z,98617.56
2023-12-13T22:48:05.219Z,98615.34
2023-12-13T22:52:20.122Z,98630.66
2023-12-13T22:56:25.854Z,98636.13
2023-12-13T23:00:29.091Z,98639.84
2023-12-13T23:04:31.136Z,98647.66
2023-12-13T23:08:32.986Z,98653.56
2023-12-13T23:12:34.990Z,98657.28
2023-12-13T23:16:38.283Z,98657.47
2023-12-13T23:20:40.508Z,98665.41
2023-12-13T23:24:42.378Z,98671.63
2023-12-13T23:28:45.382Z,98673.03
2023-12-13T23:32:47.248Z,98680.97
2023-12-13T23:36:49.043Z,98688.13
2023-12-13T23:40:51.232Z,98684.31
2023-12-13T23:44:53.368Z,98694.75
2023-12-13T23:48:58.768Z,98695.06
2023-12-13T23:53:00.665Z,98702.78
2023-12-13T23:57:02.589Z,98704.19
